Time;durP1;ratioP1;P1;durP2;ratioP2;P2;SDS_P1;SDS_P2;PMS_P1;PMS_P2;Temp;Humidity;BMP_temperature;BMP_pressure;BME280_temperature;BME280_humidity;BME280_pressure;Samples;Min_cycle;Max_cycle;Signal;HPM_P1;HPM_P2
2021/05/22 00:00:09;;;;;;;10.82;3.30;;;;;;;21.76;31.89;100049.97;5035074;28;20077;-84
2021/05/22 00:02:34;;;;;;;9.57;3.30;;;;;;;21.74;31.97;100044.03;5035135;28;20124;-80
2021/05/22 00:05:00;;;;;;;11.55;3.92;;;;;;;21.75;32.02;100051.19;5035050;28;20100;-78
2021/05/22 00:07:25;;;;;;;9.10;3.10;;;;;;;21.68;31.82;100056.78;5033548;28;20430;-79
2021/05/22 00:09:51;;;;;;;11.23;3.78;;;;;;;21.54;32.00;100050.09;5034988;28;20037;-78
2021/05/22 00:12:16;;;;;;;10.38;3.13;;;;;;;21.54;32.04;100050.09;5033339;28;20030;-78
2021/05/22 00:14:42;;;;;;;8.02;3.05;;;;;;;21.66;31.71;100059.16;5034853;28;20387;-79
2021/05/22 00:17:08;;;;;;;9.45;2.92;;;;;;;21.65;31.62;100054.81;5033782;28;20064;-78
2021/05/22 00:19:34;;;;;;;10.88;3.35;;;;;;;21.73;31.54;100054.38;5034674;28;20570;-79
2021/05/22 00:21:59;;;;;;;13.73;3.17;;;;;;;21.83;31.20;100061.06;5034956;28;20537;-78
2021/05/22 00:24:25;;;;;;;9.45;2.78;;;;;;;21.67;31.45;100066.31;5034305;28;20043;-85
2021/05/22 00:26:50;;;;;;;6.05;3.28;;;;;;;21.31;31.64;100063.66;5034613;28;20120;-84
2021/05/22 00:29:16;;;;;;;14.07;2.97;;;;;;;21.14;31.85;100064.50;5033170;28;20033;-85
2021/05/22 00:31:42;;;;;;;8.20;2.08;;;;;;;21.48;31.25;100067.59;5034014;28;20034;-79
2021/05/22 00:34:08;;;;;;;6.75;2.50;;;;;;;21.41;31.07;100068.41;5032567;28;20045;-78
2021/05/22 00:36:33;;;;;;;8.45;2.80;;;;;;;21.39;31.10;100073.59;5033963;28;20036;-78
2021/05/22 00:38:59;;;;;;;9.30;4.88;;;;;;;21.50;30.80;100066.00;5033926;28;20148;-83
2021/05/22 00:41:25;;;;;;;18.27;4.72;;;;;;;21.17;31.26;100078.38;5033007;28;20041;-78
2021/05/22 00:43:50;;;;;;;11.25;3.25;;;;;;;21.22;31.23;100088.28;5034032;28;20540;-86
2021/05/22 00:46:16;;;;;;;8.50;2.97;;;;;;;21.44;30.86;100078.72;5033960;28;20037;-84
2021/05/22 00:48:42;;;;;;;6.57;2.53;;;;;;;21.16;31.16;100078.75;5032696;28;20029;-84
2021/05/22 00:51:08;;;;;;;13.13;3.35;;;;;;;21.25;31.10;100081.94;5033932;28;20030;-78
2021/05/22 00:53:33;;;;;;;12.32;3.90;;;;;;;21.17;31.12;100091.47;5033467;28;20030;-78
2021/05/22 00:56:02;;;;;;;10.15;3.20;;;;;;;21.26;30.90;100094.63;5032215;28;20036;-78
2021/05/22 00:58:29;;;;;;;8.90;3.22;;;;;;;21.20;30.99;100093.44;5033642;28;20029;-78
2021/05/22 01:00:59;;;;;;;10.05;3.35;;;;;;;20.69;31.75;100100.25;5033546;28;20523;-78
2021/05/22 01:03:43;;;;;;;11.07;4.20;;;;;;;20.90;31.32;100094.69;5033330;28;20029;-85
2021/05/22 01:06:25;;;;;;;15.32;4.20;;;;;;;21.02;31.30;100096.28;5032131;28;20029;-78
2021/05/22 01:09:13;;;;;;;17.05;3.83;;;;;;;21.18;30.70;100098.63;5033325;28;20025;-83
2021/05/22 01:11:48;;;;;;;15.30;4.70;;;;;;;21.23;30.78;100095.41;5033162;28;20076;-78
2021/05/22 01:14:21;;;;;;;14.40;3.42;;;;;;;20.80;31.21;100100.25;5033035;28;20068;-82
2021/05/22 01:16:51;;;;;;;14.88;5.65;;;;;;;21.09;30.92;100107.38;5033259;28;20036;-78
2021/05/22 01:19:26;;;;;;;10.90;5.18;;;;;;;20.76;31.08;100106.59;5032717;28;20057;-80
2021/05/22 01:21:53;;;;;;;17.98;6.32;;;;;;;20.88;31.03;100101.84;5031817;28;20029;-84
2021/05/22 01:24:22;;;;;;;14.50;5.22;;;;;;;21.02;30.78;100110.16;5033099;28;20540;-85
2021/05/22 01:26:49;;;;;;;12.82;4.65;;;;;;;21.11;30.57;100112.53;5032745;28;20380;-83
2021/05/22 01:29:14;;;;;;;8.27;4.28;;;;;;;20.94;30.68;100109.38;5033365;28;20033;-84
2021/05/22 01:31:40;;;;;;;17.02;5.35;;;;;;;20.91;30.54;100120.47;5033339;28;20017;-78
2021/05/22 01:34:09;;;;;;;9.25;4.22;;;;;;;21.04;30.52;100119.66;5035013;28;20052;-78
2021/05/22 01:36:34;;;;;;;7.72;3.75;;;;;;;20.80;30.81;100117.72;5047516;28;20354;-78
2021/05/22 01:39:00;;;;;;;15.73;5.30;;;;;;;20.43;30.86;100110.53;5046054;28;20021;-79
2021/05/22 01:41:26;;;;;;;15.48;5.80;;;;;;;20.50;30.95;100120.88;5043819;28;20037;-78
2021/05/22 01:43:55;;;;;;;19.45;6.07;;;;;;;20.65;30.67;100124.47;5032965;28;20380;-85
2021/05/22 01:46:23;;;;;;;10.30;5.30;;;;;;;20.62;30.65;100123.25;5033471;28;20025;-78
2021/05/22 01:48:50;;;;;;;14.32;5.47;;;;;;;20.77;30.43;100118.50;5032888;28;20406;-78
2021/05/22 01:51:20;;;;;;;12.13;5.43;;;;;;;20.31;31.01;100130.31;5033228;28;20091;-78
2021/05/22 01:53:47;;;;;;;9.93;4.40;;;;;;;20.36;30.72;100127.16;5033057;28;20345;-78
2021/05/22 01:56:14;;;;;;;10.35;5.30;;;;;;;20.38;30.68;100132.31;5032815;28;20029;-85
2021/05/22 01:58:40;;;;;;;11.20;5.32;;;;;;;20.05;31.12;100137.00;5032400;28;20124;-78
2021/05/22 02:01:10;;;;;;;10.70;5.70;;;;;;;20.27;30.68;100139.84;5032398;28;20109;-78
2021/05/22 02:03:42;;;;;;;8.90;3.08;;;;;;;20.37;30.57;100142.63;5031259;28;20060;-84
2021/05/22 02:06:30;;;;;;;9.65;3.42;;;;;;;20.39;30.46;100150.53;5031345;28;20423;-78
2021/05/22 02:08:58;;;;;;;6.30;2.38;;;;;;;20.24;30.56;100152.50;5032687;28;20079;-78
2021/05/22 02:11:27;;;;;;;8.07;2.03;;;;;;;20.01;30.91;100157.56;5032748;28;20047;-78
2021/05/22 02:13:54;;;;;;;6.45;2.42;;;;;;;20.12;30.71;100161.19;5032950;28;20128;-84
2021/05/22 02:16:33;;;;;;;6.80;2.33;;;;;;;20.05;30.55;100166.72;5033157;28;20092;-78
2021/05/22 02:19:00;;;;;;;6.70;2.75;;;;;;;20.05;30.77;100172.25;5033101;28;20534;-81
2021/05/22 02:21:28;;;;;;;8.15;2.83;;;;;;;20.04;30.71;100167.91;5032884;28;20029;-78
2021/05/22 02:23:53;;;;;;;8.35;2.20;;;;;;;19.97;30.85;100165.91;5032573;28;20036;-78
2021/05/22 02:26:25;;;;;;;8.93;2.40;;;;;;;19.93;30.78;100171.41;5031628;28;20022;-80
2021/05/22 02:28:53;;;;;;;8.38;2.10;;;;;;;19.88;30.80;100169.03;5032919;28;20053;-85
2021/05/22 02:31:26;;;;;;;6.95;1.95;;;;;;;19.96;30.55;100164.31;5032792;28;20033;-78
2021/05/22 02:33:56;;;;;;;9.13;2.72;;;;;;;20.02;30.48;100162.72;5032677;28;20045;-79
2021/05/22 02:36:23;;;;;;;10.95;2.15;;;;;;;19.84;30.70;100157.13;5032806;28;20021;-80
2021/05/22 02:38:50;;;;;;;9.50;2.70;;;;;;;19.68;31.09;100164.97;5032441;28;20026;-78
2021/05/22 02:41:17;;;;;;;11.43;2.17;;;;;;;19.66;31.11;100168.13;5032667;28;20021;-84
2021/05/22 02:43:46;;;;;;;10.52;2.20;;;;;;;19.24;31.38;100174.19;5032446;28;20033;-78
2021/05/22 02:46:14;;;;;;;7.60;2.42;;;;;;;19.11;31.80;100168.13;5032770;28;20029;-77
2021/05/22 02:48:40;;;;;;;6.93;2.38;;;;;;;19.15;31.69;100170.16;5032657;28;20029;-79
2021/05/22 02:51:09;;;;;;;10.50;2.25;;;;;;;19.22;31.41;100175.75;5032641;28;20032;-77
2021/05/22 02:53:37;;;;;;;7.13;2.50;;;;;;;19.19;31.53;100171.75;5031436;28;20030;-78
2021/05/22 02:56:07;;;;;;;5.30;1.73;;;;;;;19.09;31.71;100178.81;5032614;28;20026;-78
2021/05/22 02:58:38;;;;;;;7.50;2.50;;;;;;;19.15;31.75;100175.69;5032667;28;20041;-77
2021/05/22 03:01:04;;;;;;;8.63;2.78;;;;;;;19.15;31.68;100172.94;5032727;28;20033;-78
2021/05/22 03:03:30;;;;;;;6.30;2.08;;;;;;;19.07;31.68;100170.09;5032008;28;20040;-78
2021/05/22 03:06:00;;;;;;;7.68;2.08;;;;;;;19.01;31.75;100176.38;5032362;28;20428;-78
2021/05/22 03:08:26;;;;;;;8.27;2.17;;;;;;;19.07;31.66;100180.38;5032601;28;20108;-78
2021/05/22 03:10:53;;;;;;;17.75;3.90;;;;;;;19.01;31.93;100185.47;5032408;28;20083;-77
2021/05/22 03:13:19;;;;;;;4.68;1.73;;;;;;;18.95;31.86;100189.78;5035086;28;20479;-83
2021/05/22 03:15:44;;;;;;;7.13;2.58;;;;;;;18.92;31.93;100189.75;5035941;28;20064;-78
2021/05/22 03:18:10;;;;;;;7.18;1.95;;;;;;;18.97;31.79;100200.50;5035955;28;20021;-78
2021/05/22 03:20:36;;;;;;;8.20;2.08;;;;;;;18.99;31.68;100187.84;5035871;28;20036;-78
2021/05/22 03:23:02;;;;;;;9.50;2.65;;;;;;;18.97;31.92;100197.72;5035870;28;20033;-78
2021/05/22 03:25:28;;;;;;;4.93;2.30;;;;;;;18.79;32.09;100192.81;5036000;28;20040;-78
2021/05/22 03:27:53;;;;;;;5.07;2.15;;;;;;;18.92;31.92;100195.28;5034487;28;20407;-84
2021/05/22 03:30:20;;;;;;;6.25;2.10;;;;;;;18.93;31.83;100191.34;5035811;28;20449;-77
2021/05/22 03:32:45;;;;;;;8.10;2.42;;;;;;;18.85;31.97;100191.28;5035345;28;20041;-78
2021/05/22 03:35:11;;;;;;;7.85;2.13;;;;;;;18.87;32.00;100188.13;5034272;28;20113;-84
2021/05/22 03:37:37;;;;;;;9.07;2.08;;;;;;;18.80;31.99;100191.63;5034069;28;20033;-77
2021/05/22 03:40:05;;;;;;;10.48;2.55;;;;;;;18.77;32.12;100200.69;5035560;28;20025;-84
2021/05/22 03:42:31;;;;;;;8.93;2.50;;;;;;;18.68;32.35;100203.00;5038595;28;20060;-83
2021/05/22 03:44:56;;;;;;;7.22;2.25;;;;;;;18.55;32.47;100204.41;5034315;28;20068;-83
2021/05/22 03:47:23;;;;;;;10.63;2.10;;;;;;;18.47;32.57;100203.53;5035445;28;20045;-78
2021/05/22 03:49:49;;;;;;;5.32;2.47;;;;;;;18.35;32.82;100212.09;5035464;28;20029;-77
2021/05/22 03:52:15;;;;;;;5.18;2.25;;;;;;;18.30;32.66;100204.94;5035334;28;20530;-78
2021/05/22 03:54:40;;;;;;;9.93;2.50;;;;;;;18.24;33.02;100202.88;5035163;28;20033;-85
2021/05/22 03:57:06;;;;;;;4.32;2.38;;;;;;;18.13;33.05;100194.44;5034233;28;20032;-82
2021/05/22 03:59:32;;;;;;;6.05;2.20;;;;;;;18.24;32.89;100202.88;5035128;28;20026;-77
2021/05/22 04:01:57;;;;;;;8.98;2.17;;;;;;;18.10;33.28;100199.94;5033930;28;20096;-77
2021/05/22 04:04:23;;;;;;;7.60;1.77;;;;;;;18.07;33.39;100204.28;5035045;28;20029;-77
2021/05/22 04:06:48;;;;;;;6.75;2.00;;;;;;;17.96;33.34;100206.09;5035086;28;20057;-83
2021/05/22 04:09:14;;;;;;;10.00;3.00;;;;;;;17.74;33.69;100213.31;5034986;28;20041;-77
2021/05/22 04:11:39;;;;;;;5.18;1.92;;;;;;;17.89;33.41;100211.53;5034884;28;20025;-78
2021/05/22 04:14:05;;;;;;;9.43;2.88;;;;;;;17.83;33.61;100213.03;5034729;28;20111;-81
2021/05/22 04:16:30;;;;;;;9.25;2.08;;;;;;;18.09;33.25;100215.75;5033553;28;20017;-78
2021/05/22 04:18:59;;;;;;;6.40;2.03;;;;;;;17.97;33.25;100214.00;5034717;28;20021;-78
2021/05/22 04:21:25;;;;;;;6.10;1.73;;;;;;;17.91;33.46;100223.81;5034655;28;20095;-81
2021/05/22 04:23:50;;;;;;;6.88;2.20;;;;;;;17.86;33.69;100228.88;5033401;28;20107;-78
2021/05/22 04:26:16;;;;;;;5.93;2.20;;;;;;;17.86;33.42;100235.19;5034807;28;20022;-78
2021/05/22 04:28:41;;;;;;;6.57;2.28;;;;;;;17.91;33.46;100232.09;5034736;28;20119;-77
2021/05/22 04:31:07;;;;;;;10.02;1.90;;;;;;;18.13;32.97;100232.34;5034184;28;20021;-81
2021/05/22 04:33:32;;;;;;;11.07;2.33;;;;;;;17.90;33.44;100232.47;5033692;28;20172;-81
2021/05/22 04:35:58;;;;;;;4.90;1.95;;;;;;;17.83;33.68;100237.88;5034141;28;20029;-79
2021/05/22 04:38:24;;;;;;;6.80;1.95;;;;;;;17.79;33.67;100239.81;5033958;28;20033;-78
2021/05/22 04:40:49;;;;;;;7.32;1.83;;;;;;;17.62;33.69;100239.16;5034064;28;20022;-79
2021/05/22 04:43:15;;;;;;;9.43;2.20;;;;;;;17.81;33.59;100237.47;5034463;28;20052;-76
2021/05/22 04:45:41;;;;;;;9.48;2.92;;;;;;;17.91;33.40;100236.81;5033661;28;20464;-77
2021/05/22 04:48:07;;;;;;;4.40;2.00;;;;;;;17.82;33.58;100239.06;5049411;28;20048;-82
2021/05/22 04:50:33;;;;;;;6.20;1.67;;;;;;;17.90;33.43;100237.97;5034317;28;20516;-78
2021/05/22 04:53:00;;;;;;;6.25;2.17;;;;;;;17.97;33.45;100236.13;5033912;28;20534;-84
2021/05/22 04:55:26;;;;;;;7.15;1.88;;;;;;;18.21;32.91;100245.09;5034186;28;20021;-77
2021/05/22 04:57:51;;;;;;;5.50;1.70;;;;;;;18.13;33.00;100243.41;5034164;28;20510;-77
2021/05/22 05:00:17;;;;;;;5.30;1.92;;;;;;;18.10;33.11;100249.72;5034135;28;20029;-80
2021/05/22 05:02:43;;;;;;;4.70;1.55;;;;;;;18.22;33.13;100252.25;5033051;28;20068;-77
2021/05/22 05:05:11;;;;;;;3.30;1.83;;;;;;;18.27;32.78;100262.94;5031679;28;20053;-77
2021/05/22 05:07:40;;;;;;;7.20;2.10;;;;;;;18.31;32.99;100263.81;5033859;28;20065;-77
2021/05/22 05:10:07;;;;;;;6.72;1.88;;;;;;;18.39;32.67;100268.25;5033678;28;20061;-78
2021/05/22 05:12:32;;;;;;;7.93;2.00;;;;;;;18.16;33.17;100278.63;5033567;28;20034;-78
2021/05/22 05:14:59;;;;;;;3.92;2.00;;;;;;;18.10;33.29;100272.63;5033893;28;20037;-84
2021/05/22 05:17:24;;;;;;;6.80;1.75;;;;;;;18.22;33.15;100279.91;5033641;28;20033;-76
2021/05/22 05:19:50;;;;;;;7.95;1.73;;;;;;;18.30;33.03;100282.38;5032374;28;20045;-76
2021/05/22 05:22:15;;;;;;;6.07;1.63;;;;;;;18.22;32.94;100286.22;5033606;28;20437;-77
2021/05/22 05:24:41;;;;;;;4.57;1.40;;;;;;;18.25;33.05;100279.13;5033417;28;20476;-76
2021/05/22 05:27:07;;;;;;;6.05;1.20;;;;;;;18.23;33.22;100285.03;5032282;28;20397;-76
2021/05/22 05:29:34;;;;;;;5.82;1.27;;;;;;;18.38;32.92;100276.94;5033676;28;20035;-77
2021/05/22 05:31:59;;;;;;;6.57;1.45;;;;;;;18.39;33.01;100278.53;5033204;28;20055;-76
2021/05/22 05:34:24;;;;;;;6.47;1.85;;;;;;;18.45;33.03;100282.56;5032516;28;20049;-79
2021/05/22 05:36:50;;;;;;;6.00;1.77;;;;;;;18.49;32.84;100283.38;5033196;28;20044;-76
2021/05/22 05:39:17;;;;;;;6.40;1.52;;;;;;;18.56;32.83;100286.22;5033127;28;20025;-85
2021/05/22 05:41:42;;;;;;;3.58;1.48;;;;;;;18.53;33.03;100278.69;5032137;28;20480;-83
2021/05/22 05:44:08;;;;;;;9.88;2.72;;;;;;;18.60;32.93;100284.31;5028619;28;20060;-81
2021/05/22 05:46:33;;;;;;;7.35;1.83;;;;;;;18.94;32.83;100281.50;5031322;28;20404;-84
2021/05/22 05:48:59;;;;;;;8.57;1.45;;;;;;;19.33;32.11;100290.19;5030043;28;20021;-80
2021/05/22 05:51:24;;;;;;;3.95;1.60;;;;;;;19.34;32.23;100289.78;5031474;28;20387;-81
2021/05/22 05:53:50;;;;;;;8.13;3.05;;;;;;;19.78;31.56;100296.47;5048053;28;20033;-81
2021/05/22 05:56:15;;;;;;;4.90;1.52;;;;;;;20.03;31.22;100303.00;5032665;28;20029;-79
2021/05/22 05:58:41;;;;;;;4.60;1.45;;;;;;;19.98;31.51;100310.88;5031931;28;20029;-86
2021/05/22 06:01:08;;;;;;;4.32;1.50;;;;;;;20.16;31.18;100309.78;5033383;28;20039;-77
2021/05/22 06:03:34;;;;;;;7.10;1.45;;;;;;;20.29;31.12;100310.25;5032362;28;20044;-76
2021/05/22 06:06:00;;;;;;;6.10;1.38;;;;;;;20.23;31.16;100309.81;5033063;28;20029;-78
2021/05/22 06:08:26;;;;;;;5.32;1.85;;;;;;;20.17;31.16;100318.91;5041272;28;20036;-79
2021/05/22 06:10:53;;;;;;;6.07;2.15;;;;;;;20.37;30.43;100311.88;5045310;28;20053;-77
2021/05/22 06:13:26;;;;;;;4.80;2.35;;;;;;;20.30;30.77;100316.59;5045769;28;20163;-82
2021/05/22 06:16:01;;;;;;;10.15;3.08;;;;;;;20.32;30.67;100314.22;5033329;28;20033;-77
2021/05/22 06:18:33;;;;;;;3.13;1.42;;;;;;;20.41;30.57;100312.69;5031390;28;20483;-77
2021/05/22 06:21:00;;;;;;;3.53;1.08;;;;;;;20.27;30.73;100311.84;5012994;28;20029;-85
2021/05/22 06:23:25;;;;;;;5.43;1.48;;;;;;;20.37;30.59;100319.41;5013019;28;20073;-84
2021/05/22 06:25:51;;;;;;;9.07;2.17;;;;;;;20.38;30.63;100316.22;5042100;28;20029;-78
2021/05/22 06:28:17;;;;;;;2.65;1.13;;;;;;;19.86;31.40;100325.84;5027846;28;20104;-82
2021/05/22 06:30:43;;;;;;;6.75;1.30;;;;;;;20.28;30.65;100318.97;5033468;28;20032;-85
2021/05/22 06:33:09;;;;;;;4.38;1.63;;;;;;;20.31;30.53;100329.28;5025766;28;20050;-77
2021/05/22 06:35:34;;;;;;;5.10;1.50;;;;;;;20.12;30.85;100319.28;5030983;28;20022;-76
2021/05/22 06:38:00;;;;;;;3.42;1.45;;;;;;;20.37;30.44;100322.97;5032251;28;20025;-77
2021/05/22 06:40:25;;;;;;;5.32;1.33;;;;;;;20.61;30.08;100324.28;5031360;28;20487;-81
2021/05/22 06:42:51;;;;;;;3.70;1.50;;;;;;;20.74;30.00;100321.97;5031160;28;20037;-75
2021/05/22 06:45:17;;;;;;;4.82;1.25;;;;;;;20.36;30.08;100335.25;5032035;28;20029;-74
2021/05/22 06:47:43;;;;;;;3.33;1.30;;;;;;;20.84;29.84;100321.19;5033952;28;20029;-75
2021/05/22 06:50:09;;;;;;;4.80;2.05;;;;;;;20.78;29.94;100326.34;5035895;28;20033;-72
2021/05/22 06:52:35;;;;;;;8.50;2.20;;;;;;;20.95;29.72;100327.56;5035068;28;20040;-73
2021/05/22 06:55:01;;;;;;;10.63;2.22;;;;;;;20.59;30.21;100323.88;5034523;28;20026;-74
2021/05/22 06:57:27;;;;;;;6.13;2.00;;;;;;;21.12;29.54;100333.56;5035751;28;20038;-73
2021/05/22 06:59:53;;;;;;;2.95;1.13;;;;;;;21.15;29.53;100327.19;5033538;28;20456;-74
2021/05/22 07:02:19;;;;;;;7.82;2.13;;;;;;;21.27;29.40;100335.16;5034254;28;20032;-78
2021/05/22 07:04:44;;;;;;;4.20;1.42;;;;;;;21.44;29.15;100339.97;5035888;28;20041;-79
2021/05/22 07:07:10;;;;;;;4.70;1.90;;;;;;;21.36;29.28;100346.72;5031212;28;20427;-77
2021/05/22 07:09:35;;;;;;;5.95;1.48;;;;;;;21.59;28.96;100349.09;5033332;28;20108;-76
2021/05/22 07:12:01;;;;;;;10.18;2.15;;;;;;;21.40;28.40;100353.06;5033941;28;20029;-75
2021/05/22 07:14:28;;;;;;;3.67;1.67;;;;;;;21.55;28.64;100371.34;5035276;28;20392;-76
2021/05/22 07:16:55;;;;;;;7.25;2.50;;;;;;;21.13;29.15;100366.50;5033776;28;20045;-81
2021/05/22 07:19:21;;;;;;;10.52;3.72;;;;;;;21.52;28.50;100361.00;5032417;28;20129;-74
2021/05/22 07:21:46;;;;;;;13.57;3.28;;;;;;;21.18;28.49;100371.66;5034747;28;20451;-74
2021/05/22 07:24:12;;;;;;;4.82;1.77;;;;;;;21.19;28.58;100373.25;5029734;28;20675;-78
2021/05/22 07:26:38;;;;;;;7.15;1.85;;;;;;;21.64;28.08;100370.94;5034695;28;20365;-82
2021/05/22 07:29:04;;;;;;;11.38;1.92;;;;;;;21.82;27.82;100374.50;5034257;28;20030;-80
2021/05/22 07:31:32;;;;;;;6.32;2.00;;;;;;;21.74;28.08;100383.25;5031328;28;20022;-77
2021/05/22 07:33:58;;;;;;;6.15;2.53;;;;;;;21.39;28.28;100379.28;5033824;28;20045;-83
2021/05/22 07:36:24;;;;;;;7.28;1.88;;;;;;;21.17;28.26;100385.97;5027672;28;20080;-89
2021/05/22 07:38:50;;;;;;;4.72;1.52;;;;;;;21.61;27.76;100388.41;5030034;28;20033;-83
2021/05/22 07:41:15;;;;;;;7.78;2.92;;;;;;;22.01;27.22;100387.22;5032645;28;20035;-78
2021/05/22 07:43:41;;;;;;;5.82;2.03;;;;;;;21.73;27.90;100390.00;5032610;28;20049;-78
2021/05/22 07:46:07;;;;;;;6.65;1.90;;;;;;;21.51;27.89;100392.78;5031622;28;20029;-78
2021/05/22 07:48:33;;;;;;;8.75;2.65;;;;;;;21.73;27.76;100388.03;5030372;28;20117;-80
2021/05/22 07:50:58;;;;;;;3.92;1.52;;;;;;;21.68;27.96;100391.19;5031558;28;20500;-84
2021/05/22 07:53:24;;;;;;;7.78;1.95;;;;;;;21.85;27.84;100390.41;5030070;28;20543;-83
2021/05/22 07:55:50;;;;;;;3.35;1.65;;;;;;;22.30;27.29;100376.09;5028504;28;20018;-83
2021/05/22 07:58:16;;;;;;;7.82;1.98;;;;;;;22.42;27.58;100392.34;5028464;28;20029;-76
2021/05/22 08:00:43;;;;;;;6.97;1.88;;;;;;;21.88;27.17;100397.16;5030462;28;20022;-84
2021/05/22 08:03:09;;;;;;;6.65;2.42;;;;;;;22.08;27.35;100394.81;5029820;28;20481;-86
2021/05/22 08:05:34;;;;;;;9.80;2.47;;;;;;;22.21;27.34;100401.50;5027742;28;20022;-78
2021/05/22 08:08:00;;;;;;;6.93;2.05;;;;;;;22.48;26.91;100396.31;5029237;28;20403;-80
2021/05/22 08:10:26;;;;;;;7.22;1.60;;;;;;;22.87;26.65;100406.53;5029861;28;20052;-77
2021/05/22 08:12:51;;;;;;;2.70;1.55;;;;;;;22.86;26.65;100393.81;5030844;28;20124;-79
2021/05/22 08:15:17;;;;;;;4.45;1.80;;;;;;;22.74;26.91;100414.50;5044130;28;20034;-77
2021/05/22 08:17:43;;;;;;;5.07;1.60;;;;;;;22.78;26.53;100414.50;5029650;28;20178;-80
2021/05/22 08:20:10;;;;;;;4.63;1.45;;;;;;;22.80;26.15;100417.66;5031189;28;20036;-76
2021/05/22 08:22:36;;;;;;;4.22;1.52;;;;;;;22.52;26.27;100433.28;5028384;28;20034;-76
2021/05/22 08:25:03;;;;;;;8.55;2.10;;;;;;;22.42;25.85;100431.31;5028474;28;20026;-76
2021/05/22 08:27:30;;;;;;;5.18;2.10;;;;;;;22.84;25.53;100429.59;5029344;28;20399;-76
2021/05/22 08:29:56;;;;;;;4.05;1.20;;;;;;;23.09;25.44;100433.09;5030115;28;20029;-75
2021/05/22 08:32:24;;;;;;;6.40;1.52;;;;;;;23.46;25.27;100435.28;5029279;28;20033;-76
2021/05/22 08:34:50;;;;;;;3.13;1.38;;;;;;;23.07;25.44;100429.13;5029089;28;20052;-80
2021/05/22 08:37:19;;;;;;;12.80;2.75;;;;;;;23.63;25.15;100428.00;5029749;28;20391;-79
2021/05/22 08:39:44;;;;;;;5.32;1.08;;;;;;;23.20;25.28;100425.50;5030311;28;20104;-77
2021/05/22 08:42:29;;;;;;;2.60;1.20;;;;;;;23.63;25.19;100435.59;5030117;28;20092;-79
2021/05/22 08:45:10;;;;;;;4.38;1.13;;;;;;;22.99;24.99;100433.94;5026175;28;20049;-77
2021/05/22 08:47:37;;;;;;;5.93;1.20;;;;;;;23.51;24.64;100437.66;5026747;28;20103;-76
2021/05/22 08:50:05;;;;;;;12.18;2.13;;;;;;;23.96;24.93;100442.53;5029880;28;20026;-76
2021/05/22 08:52:31;;;;;;;5.95;1.92;;;;;;;24.25;24.87;100446.63;5024077;28;20018;-75
2021/05/22 08:54:56;;;;;;;3.00;1.33;;;;;;;23.38;24.99;100444.09;5027729;28;20032;-77
2021/05/22 08:57:22;;;;;;;3.58;1.65;;;;;;;23.80;24.25;100455.00;5027594;28;20061;-76
2021/05/22 08:59:48;;;;;;;2.38;1.30;;;;;;;23.44;24.59;100462.00;5027748;28;20056;-76
2021/05/22 09:02:20;;;;;;;4.93;1.38;;;;;;;23.17;24.64;100451.38;5027942;28;20066;-76
2021/05/22 09:05:05;;;;;;;8.05;1.48;;;;;;;23.57;24.30;100460.28;5027839;28;20056;-76
2021/05/22 09:07:32;;;;;;;5.70;1.15;;;;;;;23.93;24.28;100446.13;5026956;28;20029;-78
2021/05/22 09:10:08;;;;;;;5.40;1.50;;;;;;;23.71;24.30;100454.66;5027676;28;20539;-76
2021/05/22 09:12:39;;;;;;;3.17;0.95;;;;;;;23.97;23.94;100452.47;5020389;28;20030;-77
2021/05/22 09:15:11;;;;;;;7.60;2.13;;;;;;;23.77;23.96;100455.81;5028439;28;20025;-77
2021/05/22 09:17:44;;;;;;;4.88;1.45;;;;;;;23.89;24.03;100467.69;5027336;28;20056;-77
2021/05/22 09:20:20;;;;;;;4.45;1.63;;;;;;;23.95;24.09;100460.44;5029127;28;20488;-77
2021/05/22 09:22:57;;;;;;;4.60;1.60;;;;;;;24.23;24.45;100463.00;5027134;28;20029;-76
2021/05/22 09:25:22;;;;;;;8.00;5.18;;;;;;;24.27;24.07;100469.34;5027913;28;20029;-76
2021/05/22 09:27:48;;;;;;;7.95;6.85;;;;;;;24.43;23.69;100460.47;5028837;28;20017;-77
2021/05/22 09:30:16;;;;;;;2.78;1.00;;;;;;;24.57;23.62;100459.53;5028263;28;20540;-76
2021/05/22 09:32:44;;;;;;;4.07;1.00;;;;;;;24.88;23.16;100457.56;5028639;28;20056;-76
2021/05/22 09:35:11;;;;;;;1.92;1.02;;;;;;;25.12;23.38;100466.88;5028102;28;20045;-77
2021/05/22 09:37:43;;;;;;;5.55;1.25;;;;;;;25.39;23.49;100469.72;5028056;28;20022;-76
2021/05/22 09:40:09;;;;;;;6.18;1.63;;;;;;;25.26;23.20;100466.72;5026956;28;20492;-77
2021/05/22 09:42:40;;;;;;;1.75;1.02;;;;;;;24.88;22.94;100474.34;5026740;28;20037;-77
2021/05/22 09:45:29;;;;;;;6.03;1.73;;;;;;;24.42;22.78;100467.25;5027640;28;20037;-76
2021/05/22 09:47:58;;;;;;;3.75;0.90;;;;;;;24.84;22.85;100474.38;5027530;28;20454;-77
2021/05/22 09:50:40;;;;;;;3.47;0.98;;;;;;;24.84;22.49;100471.56;5027876;28;20123;-77
2021/05/22 09:53:29;;;;;;;4.00;1.25;;;;;;;24.83;22.35;100477.59;5027880;28;20053;-78
2021/05/22 09:56:19;;;;;;;5.00;1.63;;;;;;;24.90;22.60;100474.72;5025877;28;20035;-83
2021/05/22 09:58:53;;;;;;;8.25;1.48;;;;;;;24.62;23.18;100482.19;5032070;28;20030;-79
2021/05/22 10:01:25;;;;;;;2.28;1.10;;;;;;;24.62;23.24;100482.19;5031275;28;20376;-78
2021/05/22 10:03:51;;;;;;;11.88;1.40;;;;;;;24.97;22.84;100482.22;5031850;28;20037;-77
2021/05/22 10:06:18;;;;;;;5.40;1.20;;;;;;;24.79;23.06;100486.03;5032054;28;20029;-77
2021/05/22 10:08:44;;;;;;;3.10;0.80;;;;;;;24.91;22.55;100474.28;5032025;28;20517;-80
2021/05/22 10:11:10;;;;;;;4.57;0.95;;;;;;;25.20;22.91;100484.38;5031009;28;20036;-81
2021/05/22 10:13:36;;;;;;;3.80;1.10;;;;;;;25.24;22.40;100487.91;5031433;28;20021;-81
2021/05/22 10:16:05;;;;;;;17.17;3.35;;;;;;;25.15;23.20;100492.00;5031660;28;20021;-79
2021/05/22 10:18:31;;;;;;;1.93;0.93;;;;;;;24.97;22.77;100487.81;5031642;28;20021;-85
2021/05/22 10:21:00;;;;;;;6.68;1.50;;;;;;;24.71;22.59;100498.50;5032941;28;20270;-76
2021/05/22 10:23:26;;;;;;;5.65;1.20;;;;;;;24.85;22.57;100492.72;5035720;28;20029;-76
2021/05/22 10:25:57;;;;;;;3.70;1.13;;;;;;;25.04;22.77;100494.13;5035466;28;20117;-75
2021/05/22 10:28:24;;;;;;;4.88;1.98;;;;;;;25.16;22.81;100489.97;5035915;28;20048;-78
2021/05/22 10:30:50;;;;;;;1.60;0.70;;;;;;;25.37;22.20;100492.50;5035678;28;20102;-78
2021/05/22 10:33:17;;;;;;;2.10;0.75;;;;;;;25.48;22.53;100488.78;5027826;28;20065;-74
2021/05/22 10:35:48;;;;;;;2.05;0.95;;;;;;;25.54;21.85;100489.88;5025242;28;20018;-76
2021/05/22 10:38:32;;;;;;;1.63;0.82;;;;;;;25.37;21.81;100492.50;5029530;28;20091;-75
2021/05/22 10:40:59;;;;;;;2.50;1.30;;;;;;;25.12;22.03;100501.22;5035587;28;20017;-79
2021/05/22 10:43:56;;;;;;;4.90;1.42;;;;;;;24.57;22.19;100498.63;5035253;28;20499;-79
2021/05/22 10:46:22;;;;;;;4.63;1.02;;;;;;;24.78;22.06;100505.97;5035374;28;20033;-76
2021/05/22 10:49:02;;;;;;;4.43;1.15;;;;;;;24.77;22.16;100507.97;5034760;28;20132;-79
2021/05/22 10:51:34;;;;;;;3.85;0.90;;;;;;;24.96;22.45;100508.59;5033359;28;20025;-76
2021/05/22 10:54:02;;;;;;;2.13;0.88;;;;;;;25.08;22.49;100508.84;5033211;28;20034;-76
2021/05/22 10:56:28;;;;;;;1.70;0.70;;;;;;;25.34;22.19;100515.72;5033291;28;20511;-76
2021/05/22 10:59:00;;;;;;;3.65;0.90;;;;;;;25.18;22.42;100509.94;5033713;28;20029;-77
2021/05/22 11:01:26;;;;;;;1.05;0.65;;;;;;;25.12;21.96;100511.63;5033869;28;20503;-77
2021/05/22 11:04:18;;;;;;;1.92;0.90;;;;;;;25.21;21.48;100509.09;5032196;28;20034;-76
2021/05/22 11:06:55;;;;;;;3.50;1.60;;;;;;;25.18;22.23;100509.94;5035019;28;20036;-77
2021/05/22 11:09:27;;;;;;;5.78;1.13;;;;;;;25.44;22.06;100516.78;5034769;28;20034;-77
2021/05/22 11:11:57;;;;;;;16.27;2.72;;;;;;;25.69;22.35;100513.63;5034963;28;20112;-76
2021/05/22 11:14:56;;;;;;;6.68;1.20;;;;;;;25.79;21.96;100515.53;5034892;28;20037;-76
2021/05/22 11:17:22;;;;;;;3.10;1.10;;;;;;;25.89;21.87;100519.38;5034992;28;20103;-78
2021/05/22 11:20:00;;;;;;;2.75;1.00;;;;;;;25.68;21.71;100526.84;5034968;28;20038;-76
2021/05/22 11:22:53;;;;;;;3.92;1.15;;;;;;;25.78;21.79;100513.97;5034671;28;20033;-75
2021/05/22 11:25:19;;;;;;;7.40;2.00;;;;;;;25.97;22.06;100524.44;5035127;28;20031;-74
2021/05/22 11:27:45;;;;;;;2.08;0.80;;;;;;;26.03;22.22;100526.78;5042469;28;20060;-75